Time;durP1;ratioP1;P1;durP2;ratioP2;P2;SDS_P1;SDS_P2;PMS_P1;PMS_P2;Temp;Humidity;BMP_temperature;BMP_pressure;BME280_temperature;BME280_humidity;BME280_pressure;Samples;Min_cycle;Max_cycle;Signal;HPM_P1;HPM_P2
2022/08/05 00:00:41;;;;;;;10.30;4.00;;;25.00;99.90;;;;;;5021323;28;20478;-76
2022/08/05 00:03:07;;;;;;;11.97;4.67;;;25.00;99.90;;;;;;5021056;28;20454;-76
2022/08/05 00:05:34;;;;;;;8.83;3.83;;;25.00;99.90;;;;;;5023808;28;20490;-76
2022/08/05 00:08:01;;;;;;;8.77;4.27;;;25.00;99.90;;;;;;5020858;28;20461;-76
2022/08/05 00:10:29;;;;;;;8.90;4.10;;;24.90;99.90;;;;;;5022295;28;20474;-76
2022/08/05 00:12:56;;;;;;;11.60;4.30;;;24.90;99.90;;;;;;5022380;28;20823;-76
2022/08/05 00:15:23;;;;;;;6.27;4.30;;;24.90;99.90;;;;;;5021156;28;20447;-76
2022/08/05 00:17:50;;;;;;;10.37;3.93;;;24.90;99.90;;;;;;5016626;28;20894;-76
2022/08/05 00:20:17;;;;;;;6.83;4.23;;;25.00;99.90;;;;;;5017267;28;20508;-75
2022/08/05 00:22:43;;;;;;;7.40;4.40;;;25.00;99.90;;;;;;5018173;28;20461;-75
2022/08/05 00:25:10;;;;;;;18.03;4.10;;;25.10;99.90;;;;;;5015579;28;20909;-76
2022/08/05 00:27:38;;;;;;;11.87;4.20;;;25.10;99.90;;;;;;5021400;28;21019;-76
2022/08/05 00:30:06;;;;;;;12.60;4.30;;;25.10;99.90;;;;;;5027413;28;21020;-76
2022/08/05 00:32:32;;;;;;;5.50;4.00;;;25.00;99.90;;;;;;5020787;28;20864;-76
2022/08/05 00:34:59;;;;;;;9.90;4.10;;;24.90;99.90;;;;;;5020050;28;20480;-76
2022/08/05 00:37:26;;;;;;;10.93;4.27;;;24.90;99.90;;;;;;5016303;28;20446;-76
2022/08/05 00:39:52;;;;;;;11.47;4.40;;;24.80;99.90;;;;;;5016199;28;20828;-76
2022/08/05 00:42:30;;;;;;;8.00;4.53;;;24.80;99.90;;;;;;5021257;28;20470;-76
2022/08/05 00:44:58;;;;;;;12.03;5.67;;;24.70;99.90;;;;;;5027900;28;20935;-76
2022/08/05 00:47:25;;;;;;;10.57;5.60;;;24.50;99.90;;;;;;5025145;28;20858;-76
2022/08/05 00:49:51;;;;;;;16.63;6.57;;;24.10;99.90;;;;;;5019437;28;20520;-76
2022/08/05 00:52:18;;;;;;;9.57;6.40;;;23.80;99.90;;;;;;5019605;28;20846;-76
2022/08/05 00:54:45;;;;;;;17.57;7.33;;;23.50;99.90;;;;;;5020157;28;20536;-76
2022/08/05 00:57:12;;;;;;;10.47;6.17;;;23.30;99.90;;;;;;5023456;28;20564;-76
2022/08/05 00:59:38;;;;;;;27.40;8.27;;;23.10;99.90;;;;;;5018023;28;20526;-76
2022/08/05 01:02:06;;;;;;;25.37;8.10;;;23.00;99.90;;;;;;5018060;28;20891;-76
2022/08/05 01:04:33;;;;;;;15.93;7.97;;;22.80;99.90;;;;;;5021425;28;20494;-76
2022/08/05 01:07:00;;;;;;;17.30;8.80;;;22.80;99.90;;;;;;5022389;28;20871;-75
2022/08/05 01:09:26;;;;;;;15.07;8.67;;;22.70;99.90;;;;;;5019281;28;20946;-77
2022/08/05 01:11:58;;;;;;;15.83;6.90;;;22.40;99.90;;;;;;5023981;28;20544;-75
2022/08/05 01:14:27;;;;;;;17.67;7.13;;;22.40;99.90;;;;;;5020308;28;20509;-75
2022/08/05 01:16:59;;;;;;;16.40;7.87;;;22.30;99.90;;;;;;5021220;28;20454;-75
2022/08/05 01:19:39;;;;;;;12.57;7.80;;;22.20;99.90;;;;;;5019902;28;20532;-76
2022/08/05 01:22:24;;;;;;;9.70;7.70;;;22.20;99.90;;;;;;5012970;28;20474;-76
2022/08/05 01:25:05;;;;;;;16.70;8.77;;;22.10;99.90;;;;;;5016457;28;20493;-77
2022/08/05 01:27:59;;;;;;;15.70;8.53;;;22.00;99.90;;;;;;5014500;28;20507;-76
2022/08/05 01:30:28;;;;;;;11.67;8.87;;;21.90;99.90;;;;;;5021566;28;20481;-76
2022/08/05 01:32:58;;;;;;;21.57;8.30;;;21.90;99.90;;;;;;5016266;28;20445;-76
2022/08/05 01:35:30;;;;;;;16.60;8.80;;;21.90;99.90;;;;;;5020861;28;20476;-76
2022/08/05 01:38:01;;;;;;;12.40;8.67;;;21.90;99.90;;;;;;5012727;28;20454;-76
2022/08/05 01:40:30;;;;;;;15.20;9.97;;;21.80;99.90;;;;;;5018246;28;21016;-76
2022/08/05 01:43:01;;;;;;;15.07;8.90;;;21.80;99.90;;;;;;5014145;28;20450;-77
2022/08/05 01:45:30;;;;;;;12.53;9.43;;;21.80;99.90;;;;;;5020804;28;20477;-77
2022/08/05 01:47:59;;;;;;;11.17;8.40;;;21.80;99.90;;;;;;5024689;28;20501;-77
2022/08/05 01:50:29;;;;;;;13.17;8.80;;;21.70;99.90;;;;;;5016184;28;20532;-76
2022/08/05 01:52:59;;;;;;;14.43;8.77;;;21.70;99.90;;;;;;5020640;28;20872;-76
2022/08/05 01:55:28;;;;;;;14.67;9.50;;;21.70;99.90;;;;;;5019061;28;20467;-77
2022/08/05 01:57:58;;;;;;;16.53;8.67;;;21.70;99.90;;;;;;5019014;28;20454;-77
2022/08/05 02:00:25;;;;;;;12.83;9.30;;;21.80;99.90;;;;;;5017062;28;20898;-77
2022/08/05 02:02:56;;;;;;;12.53;8.97;;;21.80;99.90;;;;;;5011340;28;21040;-77
2022/08/05 02:05:28;;;;;;;12.87;8.23;;;21.80;99.90;;;;;;5010841;28;20473;-77
2022/08/05 02:07:54;;;;;;;16.27;9.20;;;21.70;99.90;;;;;;5021964;28;20807;-76
2022/08/05 02:10:21;;;;;;;11.20;8.03;;;21.70;99.90;;;;;;5011584;28;20496;-76
2022/08/05 02:12:53;;;;;;;14.00;8.73;;;21.50;99.90;;;;;;5011618;28;20453;-76
2022/08/05 02:15:25;;;;;;;18.13;9.67;;;21.60;99.90;;;;;;5024509;28;20445;-76
2022/08/05 02:17:58;;;;;;;10.93;8.27;;;21.70;99.90;;;;;;5018237;28;20957;-76
2022/08/05 02:20:30;;;;;;;11.67;8.40;;;21.70;99.90;;;;;;5024005;28;20535;-76
2022/08/05 02:22:59;;;;;;;15.37;8.37;;;21.70;99.90;;;;;;5022386;28;20457;-76
2022/08/05 02:25:31;;;;;;;14.90;8.70;;;21.70;99.90;;;;;;5019413;28;20584;-76
2022/08/05 02:27:58;;;;;;;15.33;8.73;;;21.60;99.90;;;;;;5017388;28;20458;-76
2022/08/05 02:30:30;;;;;;;15.30;8.87;;;21.60;99.90;;;;;;5023183;28;20481;-76
2022/08/05 02:32:59;;;;;;;11.67;8.80;;;21.60;99.90;;;;;;5027858;28;20483;-76
2022/08/05 02:35:27;;;;;;;16.00;8.37;;;21.50;99.90;;;;;;5026525;28;20446;-76
2022/08/05 02:37:56;;;;;;;13.60;8.30;;;21.50;99.90;;;;;;5015192;28;20449;-77
2022/08/05 02:40:24;;;;;;;12.03;8.00;;;21.40;99.90;;;;;;5014159;28;20470;-76
2022/08/05 02:42:53;;;;;;;14.43;8.67;;;21.40;99.90;;;;;;5024424;28;20954;-76
2022/08/05 02:45:21;;;;;;;10.17;8.60;;;21.40;99.90;;;;;;5023545;28;20486;-76
2022/08/05 02:47:51;;;;;;;13.87;8.43;;;21.40;99.90;;;;;;5013782;28;20458;-76
2022/08/05 02:50:20;;;;;;;13.67;9.20;;;21.40;99.90;;;;;;5023661;28;20445;-76
2022/08/05 02:52:48;;;;;;;12.30;8.33;;;21.40;99.90;;;;;;5014356;28;20482;-76
2022/08/05 02:55:15;;;;;;;12.40;8.17;;;21.40;99.90;;;;;;5018198;28;21207;-76
2022/08/05 02:57:42;;;;;;;14.20;8.30;;;21.30;99.90;;;;;;5022630;28;20524;-76
2022/08/05 03:00:11;;;;;;;12.30;8.40;;;21.40;99.90;;;;;;5015235;28;20516;-76
2022/08/05 03:02:40;;;;;;;10.33;7.40;;;21.30;99.90;;;;;;5021952;28;20477;-76
2022/08/05 03:05:10;;;;;;;12.07;7.80;;;21.20;99.90;;;;;;5015402;28;20512;-76
2022/08/05 03:07:38;;;;;;;11.70;9.03;;;21.20;99.90;;;;;;5022364;28;20458;-76
2022/08/05 03:10:05;;;;;;;10.77;7.93;;;21.10;99.90;;;;;;5023240;28;20453;-76
2022/08/05 03:12:34;;;;;;;12.53;8.07;;;21.10;99.90;;;;;;5023148;28;20450;-76
2022/08/05 03:15:01;;;;;;;13.77;7.90;;;21.10;99.90;;;;;;5021546;28;20937;-77
2022/08/05 03:17:28;;;;;;;11.67;8.07;;;20.90;99.90;;;;;;5016070;28;20450;-76
2022/08/05 03:19:55;;;;;;;16.00;7.80;;;21.10;99.90;;;;;;5026609;28;21268;-76
2022/08/05 03:22:23;;;;;;;11.03;8.20;;;21.10;99.90;;;;;;5019861;28;20446;-76
2022/08/05 03:24:50;;;;;;;11.70;8.50;;;21.10;99.90;;;;;;5023434;28;20472;-76
2022/08/05 03:27:17;;;;;;;16.53;9.20;;;21.00;99.90;;;;;;5023725;28;20834;-76
2022/08/05 03:29:44;;;;;;;13.20;7.90;;;20.90;99.90;;;;;;5023159;28;20540;-76
2022/08/05 03:32:11;;;;;;;12.47;8.33;;;21.00;99.90;;;;;;5018194;28;20489;-76
2022/08/05 03:34:39;;;;;;;11.73;8.47;;;21.00;99.90;;;;;;5024817;28;20445;-77
2022/08/05 03:37:06;;;;;;;12.70;9.30;;;21.00;99.90;;;;;;5015424;28;20454;-77
2022/08/05 03:39:34;;;;;;;15.40;7.83;;;20.90;99.90;;;;;;5015148;28;20461;-76
2022/08/05 03:42:01;;;;;;;11.03;8.30;;;21.10;99.90;;;;;;5021513;28;20850;-76
2022/08/05 03:44:28;;;;;;;11.83;8.87;;;21.10;99.90;;;;;;5027830;28;20511;-76
2022/08/05 03:46:54;;;;;;;9.83;7.80;;;21.20;99.90;;;;;;5026329;28;20463;-76
2022/08/05 03:49:21;;;;;;;11.20;7.63;;;21.20;99.90;;;;;;5026751;28;20521;-76
2022/08/05 03:51:55;;;;;;;12.30;8.27;;;21.20;99.90;;;;;;5023985;28;21074;-76
2022/08/05 03:54:30;;;;;;;16.23;9.17;;;21.20;99.90;;;;;;5023235;28;20971;-76
2022/08/05 03:56:59;;;;;;;15.57;8.73;;;21.20;99.90;;;;;;5014308;28;20454;-76
2022/08/05 03:59:32;;;;;;;13.43;8.17;;;21.20;99.90;;;;;;5014290;28;20455;-76
2022/08/05 04:01:59;;;;;;;11.17;7.70;;;21.10;99.90;;;;;;5022970;28;20477;-76
2022/08/05 04:04:28;;;;;;;8.77;7.70;;;21.10;99.90;;;;;;5027103;28;20861;-76
2022/08/05 04:06:56;;;;;;;11.03;8.60;;;21.00;99.90;;;;;;5014908;28;20489;-76
2022/08/05 04:09:23;;;;;;;11.70;8.80;;;20.80;99.90;;;;;;5014100;28;20447;-76
2022/08/05 04:11:50;;;;;;;9.00;8.00;;;21.00;99.90;;;;;;5024672;28;20548;-76
2022/08/05 04:14:19;;;;;;;9.67;7.77;;;20.90;99.90;;;;;;5022450;28;20446;-76
2022/08/05 04:16:46;;;;;;;9.53;8.53;;;21.00;99.90;;;;;;5022147;28;20442;-76
2022/08/05 04:19:13;;;;;;;9.87;7.90;;;20.90;99.90;;;;;;5013886;28;20883;-77
2022/08/05 04:21:40;;;;;;;13.40;8.80;;;20.90;99.90;;;;;;5016300;28;20532;-76
2022/08/05 04:24:07;;;;;;;13.60;8.37;;;20.90;99.90;;;;;;5023636;28;20450;-77
2022/08/05 04:26:34;;;;;;;12.23;9.00;;;21.00;99.90;;;;;;5019933;28;20491;-76
2022/08/05 04:29:01;;;;;;;13.67;8.80;;;21.00;99.90;;;;;;5020622;28;20509;-76
2022/08/05 04:31:29;;;;;;;11.23;8.03;;;21.10;99.90;;;;;;5020600;28;20527;-76
2022/08/05 04:33:56;;;;;;;11.50;8.03;;;21.10;99.90;;;;;;5021790;28;20501;-76
2022/08/05 04:36:22;;;;;;;12.23;9.23;;;21.10;99.90;;;;;;5021827;28;20500;-76
2022/08/05 04:38:51;;;;;;;12.73;8.77;;;21.10;99.90;;;;;;5021385;28;20466;-77
2022/08/05 04:41:17;;;;;;;11.93;8.40;;;21.10;99.90;;;;;;5014823;28;20985;-76
2022/08/05 04:43:44;;;;;;;14.13;7.93;;;21.10;99.90;;;;;;5016500;28;20954;-78
2022/08/05 04:46:11;;;;;;;10.57;7.87;;;21.10;99.90;;;;;;5027873;28;20477;-78
2022/08/05 04:48:39;;;;;;;12.43;8.70;;;21.10;99.90;;;;;;5020589;28;20480;-78
2022/08/05 04:51:06;;;;;;;15.07;8.40;;;21.10;99.90;;;;;;5013088;28;20528;-77
2022/08/05 04:53:33;;;;;;;10.80;8.27;;;21.20;99.90;;;;;;5016376;28;20851;-78
2022/08/05 04:55:59;;;;;;;10.50;7.80;;;21.20;99.90;;;;;;5016859;28;20504;-77
2022/08/05 04:58:26;;;;;;;15.83;8.70;;;21.20;99.90;;;;;;5021670;28;20803;-78
2022/08/05 05:00:52;;;;;;;11.90;8.03;;;21.20;99.90;;;;;;5023390;28;20473;-77
2022/08/05 05:03:19;;;;;;;12.63;8.97;;;21.30;99.90;;;;;;5014676;28;20486;-78
2022/08/05 05:05:47;;;;;;;11.67;9.20;;;21.30;99.90;;;;;;5019230;28;20478;-76
2022/08/05 05:08:14;;;;;;;15.20;9.77;;;21.30;99.90;;;;;;5014360;28;20454;-77
2022/08/05 05:10:42;;;;;;;14.10;9.90;;;21.20;99.90;;;;;;5018611;28;20444;-77
2022/08/05 05:13:09;;;;;;;11.30;9.47;;;21.30;99.90;;;;;;5015319;28;20726;-75
2022/08/05 05:15:36;;;;;;;17.47;10.43;;;21.30;99.90;;;;;;5021781;28;20450;-75
2022/08/05 05:18:03;;;;;;;9.43;8.27;;;21.30;99.90;;;;;;5023819;28;20453;-75
2022/08/05 05:20:30;;;;;;;14.50;9.80;;;21.30;99.90;;;;;;5010422;28;20494;-75
2022/08/05 05:22:59;;;;;;;11.00;8.73;;;21.40;99.90;;;;;;5020800;28;20445;-75
2022/08/05 05:25:26;;;;;;;17.27;11.37;;;21.50;99.90;;;;;;5011581;28;20451;-76
2022/08/05 05:27:54;;;;;;;12.50;11.17;;;21.50;99.90;;;;;;5013981;28;20964;-74
2022/08/05 05:30:21;;;;;;;14.50;10.50;;;21.50;99.90;;;;;;5014470;28;20532;-75
2022/08/05 05:32:48;;;;;;;14.03;10.60;;;21.60;99.90;;;;;;5016950;28;20884;-75
2022/08/05 05:35:16;;;;;;;17.33;10.70;;;21.70;99.90;;;;;;5022668;28;20876;-75
2022/08/05 05:37:47;;;;;;;16.77;10.50;;;21.90;99.90;;;;;;5014816;28;20843;-75
2022/08/05 05:40:16;;;;;;;17.10;8.90;;;22.10;99.90;;;;;;5012879;28;20454;-75
2022/08/05 05:42:43;;;;;;;14.43;10.13;;;22.20;99.90;;;;;;5018870;28;20454;-75
2022/08/05 05:45:10;;;;;;;21.10;9.67;;;22.10;99.90;;;;;;5020290;28;20508;-74
2022/08/05 05:47:36;;;;;;;12.53;9.77;;;22.10;99.90;;;;;;5015229;28;20881;-74
2022/08/05 05:50:05;;;;;;;15.60;9.83;;;22.10;99.90;;;;;;5018603;28;20880;-74
2022/08/05 05:52:31;;;;;;;17.10;9.53;;;22.00;99.90;;;;;;5027635;28;20515;-74
2022/08/05 05:55:00;;;;;;;11.87;9.00;;;22.00;99.90;;;;;;5017462;28;20460;-74
2022/08/05 05:57:27;;;;;;;15.40;8.87;;;22.00;99.90;;;;;;5012407;28;20951;-75
2022/08/05 05:59:54;;;;;;;14.23;9.70;;;22.00;99.90;;;;;;5011741;28;20450;-74
2022/08/05 06:02:21;;;;;;;19.63;11.00;;;22.00;99.90;;;;;;5012859;28;20454;-74
2022/08/05 06:04:47;;;;;;;18.00;10.90;;;22.00;99.90;;;;;;5015375;28;20966;-74
2022/08/05 06:07:15;;;;;;;12.87;10.43;;;22.00;99.90;;;;;;5018883;28;20512;-74
2022/08/05 06:09:41;;;;;;;16.73;10.90;;;21.90;99.90;;;;;;5018550;28;20482;-74
2022/08/05 06:12:08;;;;;;;17.43;10.77;;;21.80;99.90;;;;;;5025401;28;20519;-74
2022/08/05 06:14:36;;;;;;;14.73;10.00;;;21.70;99.90;;;;;;5020171;28;21040;-73
2022/08/05 06:17:04;;;;;;;18.57;11.50;;;21.70;99.90;;;;;;5015501;28;20450;-73
2022/08/05 06:19:31;;;;;;;15.27;10.30;;;21.70;99.90;;;;;;5014249;28;20877;-73
2022/08/05 06:21:57;;;;;;;13.73;11.17;;;21.60;99.90;;;;;;5011402;28;20994;-73
2022/08/05 06:24:24;;;;;;;17.33;11.40;;;21.60;99.90;;;;;;5011975;28;20509;-73
2022/08/05 06:26:50;;;;;;;16.07;12.83;;;21.60;99.90;;;;;;5011082;28;20548;-73
2022/08/05 06:29:17;;;;;;;17.57;13.00;;;21.60;99.90;;;;;;5011139;28;20976;-73
2022/08/05 06:31:45;;;;;;;14.23;12.73;;;21.70;99.90;;;;;;5011707;28;20470;-73
2022/08/05 06:34:12;;;;;;;15.50;12.60;;;21.70;99.90;;;;;;5012113;28;20451;-73
2022/08/05 06:36:38;;;;;;;22.60;13.90;;;21.60;99.90;;;;;;5011227;28;20446;-73
2022/08/05 06:39:05;;;;;;;20.57;13.40;;;21.60;99.90;;;;;;5011325;28;20454;-74
2022/08/05 06:41:32;;;;;;;16.27;14.50;;;21.60;99.90;;;;;;5010171;28;20474;-72
2022/08/05 06:43:58;;;;;;;19.63;14.50;;;21.60;99.90;;;;;;5010648;28;20447;-73
2022/08/05 06:46:26;;;;;;;18.83;13.43;;;21.60;99.90;;;;;;5011031;28;20482;-73
2022/08/05 06:48:56;;;;;;;15.87;12.23;;;21.60;99.90;;;;;;5011105;28;20520;-73
2022/08/05 06:51:22;;;;;;;16.27;10.97;;;21.60;99.90;;;;;;5010896;28;20465;-73
2022/08/05 06:53:49;;;;;;;11.73;10.13;;;21.70;99.90;;;;;;5011581;28;20457;-73
2022/08/05 06:56:17;;;;;;;14.03;9.93;;;21.70;99.90;;;;;;5010402;28;20450;-73
2022/08/05 06:58:44;;;;;;;16.50;9.47;;;21.80;99.90;;;;;;5011392;28;20477;-73
2022/08/05 07:01:11;;;;;;;13.13;10.17;;;21.80;99.90;;;;;;5011400;28;20474;-73
2022/08/05 07:03:37;;;;;;;12.10;9.20;;;21.90;99.90;;;;;;5011508;28;20454;-73
2022/08/05 07:06:06;;;;;;;11.67;9.10;;;22.00;99.90;;;;;;5011293;28;20532;-73
2022/08/05 07:08:32;;;;;;;13.07;9.67;;;22.20;99.90;;;;;;5011006;28;20454;-73
2022/08/05 07:10:59;;;;;;;13.83;10.53;;;22.60;99.90;;;;;;5010611;28;21001;-73
2022/08/05 07:18:54;;;;;;;16.77;11.10;;;23.20;99.90;;;;;;5010219;28;20461;-77
2022/08/05 07:21:22;;;;;;;14.10;11.37;;;23.50;99.90;;;;;;5009045;28;20481;-76
2022/08/05 07:23:49;;;;;;;20.47;11.47;;;23.50;99.90;;;;;;5010300;28;20454;-74
2022/08/05 07:26:15;;;;;;;19.37;11.53;;;23.60;99.90;;;;;;5008922;28;20482;-73
2022/08/05 07:28:42;;;;;;;12.30;9.43;;;23.40;99.90;;;;;;5009597;28;20505;-74
2022/08/05 07:31:09;;;;;;;11.97;10.73;;;23.40;99.90;;;;;;5009656;28;20470;-79
2022/08/05 07:33:35;;;;;;;14.10;11.03;;;23.30;99.90;;;;;;5010489;28;20527;-79
2022/08/05 07:36:02;;;;;;;18.70;11.13;;;23.30;99.90;;;;;;5010122;28;20517;-79
2022/08/05 07:38:30;;;;;;;17.03;9.63;;;23.30;99.90;;;;;;5010626;28;20454;-79
2022/08/05 07:40:57;;;;;;;17.83;10.03;;;23.30;99.90;;;;;;5009650;28;20532;-79
2022/08/05 07:43:23;;;;;;;11.83;8.50;;;23.30;99.90;;;;;;5010155;28;20880;-79
2022/08/05 07:45:50;;;;;;;13.57;9.67;;;23.30;99.90;;;;;;5009621;28;20473;-79
2022/08/05 07:48:17;;;;;;;11.63;10.10;;;23.50;99.90;;;;;;5009698;28;20494;-78
2022/08/05 07:50:43;;;;;;;14.53;10.63;;;23.40;99.90;;;;;;5007751;28;21068;-78
2022/08/05 07:53:10;;;;;;;16.03;12.93;;;23.50;99.90;;;;;;5019632;28;21007;-79
2022/08/05 07:55:38;;;;;;;18.67;13.47;;;23.50;99.90;;;;;;5028787;28;20548;-79
2022/08/05 07:58:05;;;;;;;16.67;12.23;;;23.50;99.90;;;;;;5026910;28;20454;-78
2022/08/05 08:00:32;;;;;;;15.53;12.50;;;23.60;99.90;;;;;;5028262;28;20465;-78
2022/08/05 08:02:58;;;;;;;17.00;12.23;;;23.70;99.90;;;;;;5027662;28;20445;-77
2022/08/05 08:05:26;;;;;;;14.70;11.37;;;23.80;99.90;;;;;;5031877;28;20480;-82
2022/08/05 08:07:54;;;;;;;16.50;12.03;;;23.70;99.90;;;;;;5029110;28;20578;-77
2022/08/05 08:10:21;;;;;;;17.70;13.30;;;23.60;99.90;;;;;;5029498;28;20564;-78
2022/08/05 08:12:49;;;;;;;17.63;12.70;;;23.50;99.90;;;;;;5028821;28;20484;-78
2022/08/05 08:15:16;;;;;;;20.60;12.47;;;23.50;99.90;;;;;;5029599;28;20940;-78
2022/08/05 08:17:43;;;;;;;12.97;11.47;;;23.50;99.90;;;;;;5028464;28;20441;-79
2022/08/05 08:20:10;;;;;;;15.83;11.87;;;23.60;99.90;;;;;;5026233;28;20858;-79
2022/08/05 08:22:37;;;;;;;19.23;12.90;;;23.50;99.90;;;;;;5027685;28;20866;-78
2022/08/05 08:25:05;;;;;;;16.03;12.10;;;23.40;99.90;;;;;;5025786;28;20804;-78
2022/08/05 08:27:31;;;;;;;20.30;12.97;;;23.50;99.90;;;;;;5028186;28;21238;-78
2022/08/05 08:29:59;;;;;;;16.83;11.60;;;23.40;99.90;;;;;;5026288;28;20445;-78
2022/08/05 08:32:26;;;;;;;19.20;11.80;;;23.70;99.90;;;;;;5027767;28;20461;-78
2022/08/05 08:34:53;;;;;;;12.70;10.70;;;23.80;99.90;;;;;;5025322;28;21802;-78
2022/08/05 08:37:20;;;;;;;17.10;10.70;;;23.90;99.90;;;;;;5028829;28;20503;-77
2022/08/05 08:39:46;;;;;;;11.80;8.17;;;23.90;99.90;;;;;;5027757;28;20464;-78
2022/08/05 08:42:14;;;;;;;10.13;6.20;;;24.00;99.90;;;;;;5027228;28;20474;-78
2022/08/05 08:44:42;;;;;;;19.03;6.30;;;24.10;99.90;;;;;;5026805;28;20449;-78
2022/08/05 08:47:12;;;;;;;13.10;5.53;;;24.20;99.90;;;;;;5027934;28;20481;-78
2022/08/05 08:49:43;;;;;;;10.40;4.53;;;24.30;99.90;;;;;;5028109;28;20461;-78
2022/08/05 08:52:13;;;;;;;4.43;3.93;;;24.30;99.90;;;;;;5027006;28;20476;-78
2022/08/05 08:54:40;;;;;;;4.80;4.13;;;24.40;99.90;;;;;;5027976;28;20450;-78
2022/08/05 08:57:07;;;;;;;4.03;3.73;;;24.50;99.90;;;;;;5027690;28;21134;-78
2022/08/05 08:59:35;;;;;;;3.80;3.50;;;24.60;99.90;;;;;;5027534;28;21043;-77
2022/08/05 09:02:05;;;;;;;3.83;3.53;;;24.70;99.90;;;;;;5026190;28;20867;-79
2022/08/05 09:04:35;;;;;;;4.60;3.77;;;24.90;99.90;;;;;;5027054;28;20450;-79
2022/08/05 09:07:01;;;;;;;5.07;3.53;;;25.10;99.90;;;;;;5025583;28;20870;-78
2022/08/05 09:09:30;;;;;;;3.77;3.47;;;25.20;99.90;;;;;;5026793;28;20450;-79
2022/08/05 09:11:57;;;;;;;3.80;3.50;;;24.90;99.90;;;;;;5025494;28;20508;-78
2022/08/05 09:14:24;;;;;;;3.97;3.67;;;24.80;99.90;;;;;;5027822;28;20503;-78
2022/08/05 09:16:51;;;;;;;3.80;3.50;;;24.90;99.90;;;;;;5027453;28;21170;-79
2022/08/05 09:19:17;;;;;;;6.43;4.10;;;25.00;99.90;;;;;;5026405;28;21681;-79
2022/08/05 09:21:45;;;;;;;6.33;3.83;;;24.90;99.90;;;;;;5027035;28;21673;-79
2022/08/05 09:24:12;;;;;;;7.67;4.00;;;24.80;99.90;;;;;;5027185;28;20458;-80
2022/08/05 09:26:39;;;;;;;3.83;3.10;;;25.00;99.90;;;;;;5026947;28;20453;-79
2022/08/05 09:29:08;;;;;;;4.33;3.93;;;25.00;99.90;;;;;;5027555;28;20449;-78
2022/08/05 09:31:35;;;;;;;5.53;3.53;;;25.10;99.90;;;;;;5027463;28;20470;-80
2022/08/05 09:34:04;;;;;;;4.00;3.60;;;24.80;99.90;;;;;;5028118;28;20446;-79
2022/08/05 09:36:42;;;;;;;4.07;3.73;;;24.90;99.90;;;;;;5026840;28;20453;-79
2022/08/05 09:39:12;;;;;;;4.40;4.00;;;25.00;99.90;;;;;;5028714;28;20459;-80
2022/08/05 09:41:56;;;;;;;6.40;3.93;;;25.10;99.90;;;;;;5028382;28;20496;-79
2022/08/05 09:44:37;;;;;;;3.63;3.33;;;25.30;99.90;;;;;;5028456;28;20508;-79
2022/08/05 09:47:12;;;;;;;9.00;4.07;;;25.30;99.90;;;;;;5028985;28;20473;-79
2022/08/05 09:49:44;;;;;;;4.33;3.93;;;25.30;99.90;;;;;;5028275;28;20445;-79
2022/08/05 09:52:25;;;;;;;8.33;3.83;;;25.40;99.90;;;;;;5026630;28;20473;-78
2022/08/05 09:57:41;;;;;;;4.27;3.87;;;25.50;99.90;;;;;;5026241;28;20935;-79
2022/08/05 10:00:11;;;;;;;5.03;3.60;;;25.50;99.90;;;;;;5026862;28;20453;-82
2022/08/05 10:02:40;;;;;;;7.30;3.80;;;25.30;99.90;;;;;;5028027;28;21016;-79
2022/08/05 10:05:10;;;;;;;5.73;4.40;;;25.30;99.90;;;;;;5028005;28;20465;-78
2022/08/05 10:07:45;;;;;;;4.47;4.17;;;25.20;99.90;;;;;;5028389;28;20546;-78
2022/08/05 10:10:13;;;;;;;5.50;4.70;;;25.20;99.90;;;;;;5026769;28;21023;-78
2022/08/05 10:12:41;;;;;;;5.87;4.30;;;25.20;99.90;;;;;;5028761;28;20453;-79
2022/08/05 10:15:19;;;;;;;5.07;4.20;;;25.20;99.90;;;;;;5026954;28;20880;-79
2022/08/05 10:18:06;;;;;;;5.43;4.93;;;25.30;99.90;;;;;;5027864;28;20503;-79
2022/08/05 10:20:34;;;;;;;6.03;4.90;;;25.50;99.90;;;;;;5027077;28;20535;-79
2022/08/05 10:23:01;;;;;;;5.17;4.30;;;25.60;99.90;;;;;;5027537;28;20465;-79
2022/08/05 10:25:29;;;;;;;5.03;4.27;;;25.70;99.90;;;;;;5027572;28;21717;-79
2022/08/05 10:27:57;;;;;;;4.63;4.23;;;25.80;99.90;;;;;;5025813;28;21274;-80
2022/08/05 10:30:24;;;;;;;4.63;4.23;;;25.90;99.90;;;;;;5027592;28;20522;-79
2022/08/05 10:32:51;;;;;;;7.70;4.40;;;26.10;99.90;;;;;;5027276;28;20485;-80
2022/08/05 10:35:17;;;;;;;4.87;4.47;;;26.00;99.90;;;;;;5026136;28;21397;-79
2022/08/05 10:37:45;;;;;;;5.97;4.60;;;26.10;99.90;;;;;;5026671;28;21173;-79
2022/08/05 10:40:19;;;;;;;6.40;4.90;;;26.10;99.90;;;;;;5026446;28;20453;-78
2022/08/05 10:42:52;;;;;;;5.03;4.53;;;26.10;99.90;;;;;;5027559;28;20460;-79
2022/08/05 10:45:26;;;;;;;7.00;4.90;;;26.10;99.90;;;;;;5026929;28;20457;-79
2022/08/05 10:47:53;;;;;;;6.07;4.73;;;26.10;99.90;;;;;;5027323;28;20480;-79
2022/08/05 10:50:20;;;;;;;5.97;4.67;;;26.00;99.90;;;;;;5030380;28;20469;-79
2022/08/05 10:52:54;;;;;;;4.90;4.47;;;26.10;99.90;;;;;;5031145;28;20511;-79
2022/08/05 10:55:20;;;;;;;6.73;4.90;;;26.10;99.90;;;;;;5030471;28;20493;-79
2022/08/05 10:57:48;;;;;;;6.07;4.67;;;26.10;99.90;;;;;;5029361;28;20449;-79
2022/08/05 11:00:17;;;;;;;5.83;4.93;;;26.20;99.90;;;;;;5029307;28;20496;-80
2022/08/05 11:03:13;;;;;;;5.30;4.90;;;26.10;99.90;;;;;;5030213;28;20504;-79
2022/08/05 11:05:40;;;;;;;5.87;5.20;;;25.90;99.90;;;;;;5028681;28;20499;-79
2022/08/05 11:08:08;;;;;;;6.83;5.50;;;25.80;99.90;;;;;;5033355;28;21023;-79
2022/08/05 11:10:36;;;;;;;5.30;4.90;;;25.50;99.90;;;;;;5029404;28;20543;-79
2022/08/05 11:13:06;;;;;;;7.33;5.40;;;25.50;99.90;;;;;;5029198;28;20453;-79
2022/08/05 11:15:38;;;;;;;5.73;5.17;;;25.60;99.90;;;;;;5029883;28;20461;-78
2022/08/05 11:18:09;;;;;;;7.50;5.43;;;25.60;99.90;;;;;;5029601;28;20483;-79
2022/08/05 11:20:38;;;;;;;7.67;5.03;;;25.60;99.90;;;;;;5028190;28;20480;-79
2022/08/05 11:23:28;;;;;;;7.90;6.10;;;25.60;99.90;;;;;;5029518;28;20476;-79
2022/08/05 11:26:07;;;;;;;6.77;5.37;;;25.70;99.90;;;;;;5029783;28;20489;-79
2022/08/05 11:28:43;;;;;;;5.70;5.30;;;25.90;99.90;;;;;;5027864;28;20853;-79
2022/08/05 11:31:26;;;;;;;7.73;6.17;;;25.70;99.90;;;;;;5028515;28;20480;-79
2022/08/05 11:33:55;;;;;;;11.80;7.90;;;25.40;99.90;;;;;;5029056;28;20984;-79
2022/08/05 11:36:45;;;;;;;8.30;7.17;;;25.30;99.90;;;;;;5029383;28;20457;-79
2022/08/05 11:39:12;;;;;;;8.90;8.00;;;25.10;99.90;;;;;;5029322;28;20564;-79
2022/08/05 11:41:40;;;;;;;10.17;8.90;;;25.10;99.90;;;;;;5024445;28;20582;-77
2022/08/05 11:44:11;;;;;;;9.60;8.10;;;24.90;99.90;;;;;;5028706;28;20453;-78
2022/08/05 11:46:40;;;;;;;10.30;8.00;;;24.90;99.90;;;;;;5028903;28;20457;-79
2022/08/05 11:49:08;;;;;;;16.40;8.57;;;24.90;99.90;;;;;;5027550;28;20484;-79
2022/08/05 11:51:35;;;;;;;10.70;8.20;;;25.00;99.90;;;;;;5028233;28;20869;-79
2022/08/05 11:54:02;;;;;;;9.13;8.27;;;25.10;99.90;;;;;;5028532;28;20445;-79
2022/08/05 11:56:43;;;;;;;9.57;8.67;;;25.30;99.90;;;;;;5028467;28;20961;-78
2022/08/05 11:59:16;;;;;;;9.97;8.97;;;25.60;99.90;;;;;;5027632;28;20505;-79
2022/08/05 12:01:53;;;;;;;10.20;9.10;;;26.10;99.90;;;;;;5028206;28;20473;-79
2022/08/05 12:04:20;;;;;;;15.17;11.53;;;26.90;99.90;;;;;;5007898;28;20484;-79
2022/08/05 12:06:47;;;;;;;12.80;11.47;;;27.50;99.90;;;;;;5032064;28;20453;-79
2022/08/05 12:09:17;;;;;;;14.20;12.87;;;28.00;99.90;;;;;;5030034;28;20515;-77
2022/08/05 12:11:45;;;;;;;15.03;13.00;;;28.20;99.90;;;;;;5030145;28;20465;-78
2022/08/05 12:14:13;;;;;;;15.33;13.83;;;28.50;99.90;;;;;;5029378;28;20544;-76
2022/08/05 12:16:42;;;;;;;16.27;14.57;;;28.70;99.90;;;;;;5029488;28;20462;-77
2022/08/05 12:19:10;;;;;;;20.13;13.67;;;28.80;99.90;;;;;;5029861;28;20488;-77
2022/08/05 12:21:43;;;;;;;13.70;12.40;;;28.80;99.90;;;;;;5029119;28;20477;-78
2022/08/05 12:24:12;;;;;;;11.90;10.60;;;28.70;99.90;;;;;;5029999;28;20859;-79
2022/08/05 12:26:41;;;;;;;12.37;10.70;;;28.70;99.90;;;;;;5029713;28;20824;-78
2022/08/05 12:29:10;;;;;;;11.93;9.63;;;28.90;99.90;;;;;;5029185;28;20481;-78
2022/08/05 12:31:38;;;;;;;10.90;9.80;;;29.00;99.90;;;;;;5028318;28;21239;-78
2022/08/05 12:34:07;;;;;;;10.43;9.33;;;29.10;99.90;;;;;;5029089;28;20458;-78
2022/08/05 12:36:35;;;;;;;10.30;8.43;;;29.10;99.90;;;;;;5029667;28;20459;-77
2022/08/05 12:39:03;;;;;;;8.87;7.97;;;29.10;99.90;;;;;;5029204;28;20457;-79
2022/08/05 12:41:31;;;;;;;7.63;7.03;;;29.10;99.90;;;;;;5028645;28;20472;-77
2022/08/05 12:44:00;;;;;;;10.70;8.57;;;28.70;99.90;;;;;;5029205;28;20450;-77
2022/08/05 12:46:29;;;;;;;8.33;7.57;;;27.80;99.90;;;;;;5028589;28;20818;-80
2022/08/05 12:49:01;;;;;;;7.90;7.20;;;27.60;99.90;;;;;;5029144;28;20481;-78
2022/08/05 12:51:30;;;;;;;7.83;7.13;;;27.60;99.90;;;;;;5028897;28;20477;-78
2022/08/05 12:54:00;;;;;;;8.80;8.00;;;27.40;99.90;;;;;;5029418;28;20544;-79